createdAt,value
2023-02-02T04:02:03.870Z,6.89
2023-02-02T04:05:13.450Z,6.81
2023-02-02T04:08:23.497Z,6.77
2023-02-02T04:11:33.212Z,6.77
2023-02-02T04:14:42.931Z,6.82
2023-02-02T04:17:53.707Z,6.79
2023-02-02T04:21:03.371Z,6.78
2023-02-02T04:24:14.167Z,6.73
2023-02-02T04:27:24.030Z,6.77
2023-02-02T04:30:33.686Z,6.80
2023-02-02T04:33:44.666Z,6.85
2023-02-02T04:36:54.213Z,6.84
2023-02-02T04:40:04.124Z,6.91
2023-02-02T04:43:14.248Z,6.92
2023-02-02T04:46:23.866Z,6.85
2023-02-02T04:49:34.738Z,6.83
2023-02-02T04:52:44.409Z,6.74
2023-02-02T04:55:53.989Z,6.71
2023-02-02T04:59:03.614Z,6.74
2023-02-02T05:02:13.190Z,6.70
2023-02-02T05:05:24.450Z,6.61
2023-02-02T05:08:34.711Z,6.58
2023-02-02T05:11:45.003Z,6.58
2023-02-02T05:14:54.623Z,6.58
2023-02-02T05:18:04.402Z,6.55
2023-02-02T05:21:15.303Z,6.62
2023-02-02T05:24:24.959Z,6.64
2023-02-02T05:27:35.069Z,6.63
2023-02-02T05:30:44.806Z,6.56
2023-02-02T05:33:54.335Z,6.48
2023-02-02T05:37:05.306Z,6.56
2023-02-02T05:40:15.180Z,6.52
2023-02-02T05:43:26.796Z,6.59
2023-02-02T05:46:36.326Z,6.66
2023-02-02T05:49:45.926Z,6.66
2023-02-02T05:52:56.896Z,6.62
2023-02-02T05:56:06.833Z,6.51
2023-02-02T05:59:17.330Z,6.55
2023-02-02T07:46:52.229Z,6.77
2023-02-02T07:50:01.849Z,6.86
2023-02-02T07:53:11.664Z,6.86
2023-02-02T07:56:23.727Z,6.83
2023-02-02T07:59:33.627Z,6.84
2023-02-02T08:02:44.551Z,6.86
2023-02-02T08:05:59.823Z,6.81
2023-02-02T08:09:11.994Z,6.86
2023-02-02T08:12:24.814Z,6.98
2023-02-02T08:15:35.706Z,7.06
2023-02-02T08:18:46.945Z,7.11
2023-02-02T08:21:56.504Z,7.19
2023-02-02T08:25:06.713Z,7.33
2023-02-02T08:28:16.325Z,7.47
2023-02-02T08:31:29.260Z,7.51
2023-02-02T08:34:40.826Z,7.69
2023-02-02T08:37:50.559Z,7.76
2023-02-02T08:41:05.587Z,7.66
2023-02-02T08:44:18.690Z,7.75
2023-02-02T08:47:30.077Z,7.90
2023-02-02T08:50:41.349Z,7.86
2023-02-02T08:53:50.914Z,7.86
2023-02-02T08:57:00.624Z,7.93
2023-02-02T09:00:11.683Z,7.96
2023-02-02T09:03:21.386Z,8.11
2023-02-02T09:06:40.266Z,8.14
2023-02-02T09:09:58.201Z,8.05
2023-02-02T09:13:07.758Z,8.07
2023-02-02T09:16:20.089Z,8.11
2023-02-02T09:19:31.267Z,8.19
2023-02-02T09:22:42.828Z,8.36
2023-02-02T09:25:55.184Z,8.32
2023-02-02T09:29:07.087Z,8.51
2023-02-02T09:32:16.662Z,8.47
2023-02-02T09:35:26.726Z,8.39
2023-02-02T09:38:38.410Z,8.43
2023-02-02T09:42:03.694Z,8.32
2023-02-02T09:45:23.456Z,8.10
2023-02-02T09:48:42.537Z,8.05
2023-02-02T09:51:56.998Z,8.07
2023-02-02T09:55:16.312Z,8.09
2023-02-02T09:58:30.195Z,8.03
2023-02-02T10:01:45.193Z,8.10
2023-02-02T10:05:02.675Z,8.22
2023-02-02T10:08:33.898Z,8.25
2023-02-02T10:11:51.561Z,8.35
2023-02-02T10:15:06.390Z,8.44
2023-02-02T10:18:21.857Z,8.68
2023-02-02T10:21:40.281Z,8.80
2023-02-02T10:24:49.949Z,8.97
2023-02-02T10:28:18.569Z,8.95
2023-02-02T10:31:42.523Z,9.01
2023-02-02T10:35:13.504Z,9.08
2023-02-02T10:38:37.560Z,9.12
2023-02-02T10:41:59.683Z,9.09
2023-02-02T10:45:17.010Z,9.13
2023-02-02T10:48:32.658Z,9.22
2023-02-02T10:51:46.859Z,9.20
2023-02-02T10:55:05.032Z,9.24
2023-02-02T10:58:25.360Z,9.39
2023-02-02T11:01:36.479Z,9.45
2023-02-02T11:04:57.847Z,9.44
2023-02-02T11:08:16.955Z,9.29
2023-02-02T11:11:31.835Z,9.38
2023-02-02T11:14:46.352Z,9.52
2023-02-02T11:17:57.466Z,9.57
2023-02-02T11:21:19.627Z,9.42
2023-02-02T11:24:31.022Z,9.47
2023-02-02T11:27:43.162Z,9.62
2023-02-02T11:30:54.372Z,9.69
2023-02-02T11:34:20.493Z,9.63
2023-02-02T11:37:32.982Z,9.66
2023-02-02T11:40:45.093Z,9.50
2023-02-02T11:43:56.712Z,9.58
2023-02-02T11:47:06.853Z,9.78
2023-02-02T11:50:24.181Z,9.96
2023-02-02T11:53:36.768Z,10.45
2023-02-02T11:56:51.068Z,10.77
2023-02-02T12:00:16.971Z,10.49
2023-02-02T12:03:32.009Z,10.36
2023-02-02T12:06:43.017Z,10.24
2023-02-02T12:09:53.156Z,10.27
2023-02-02T12:16:32.630Z,10.29
2023-02-02T12:19:56.340Z,10.43
2023-02-02T12:23:24.213Z,10.50
2023-02-02T12:26:36.921Z,10.49
2023-02-02T12:30:03.465Z,10.25
2023-02-02T12:33:24.296Z,10.38
2023-02-02T12:36:48.445Z,10.78
2023-02-02T12:40:18.333Z,10.69
2023-02-02T12:43:38.737Z,10.52
2023-02-02T12:47:00.943Z,10.39
2023-02-02T12:50:23.957Z,10.69
2023-02-02T12:53:43.192Z,10.79
2023-02-02T12:57:03.255Z,10.67
2023-02-02T13:00:28.272Z,10.38
2023-02-02T13:03:51.029Z,9.97
2023-02-02T13:10:48.155Z,10.22
2023-02-02T13:14:03.727Z,10.02
2023-02-02T13:17:18.279Z,10.04
2023-02-02T13:20:37.865Z,10.05
2023-02-02T13:23:51.879Z,9.95
2023-02-02T13:27:05.811Z,10.04
2023-02-02T13:30:28.796Z,9.85
2023-02-02T13:33:39.868Z,9.78
2023-02-02T13:36:55.492Z,9.79
2023-02-02T13:40:16.925Z,9.88
2023-02-02T13:43:35.421Z,10.06
2023-02-02T13:46:53.747Z,10.00
2023-02-02T13:50:12.117Z,10.00
2023-02-02T13:53:42.047Z,9.89
2023-02-02T13:56:59.323Z,9.71
2023-02-02T14:00:16.583Z,9.47
2023-02-02T14:03:38.184Z,9.57
2023-02-02T14:06:56.966Z,9.61
2023-02-02T14:10:08.168Z,9.60
2023-02-02T14:13:33.013Z,9.47
2023-02-02T14:16:47.575Z,9.37
2023-02-02T14:19:59.854Z,9.42
2023-02-02T14:23:39.178Z,9.37
2023-02-02T14:26:51.327Z,9.35
2023-02-02T14:30:01.708Z,9.21
2023-02-02T14:33:26.218Z,9.01
2023-02-02T14:36:39.894Z,8.88
2023-02-02T14:39:57.687Z,8.90
2023-02-02T14:43:29.716Z,8.88
2023-02-02T14:46:40.928Z,8.77
2023-02-02T14:49:51.333Z,8.80
2023-02-02T14:53:06.198Z,8.88
2023-02-02T14:56:17.487Z,8.94
2023-02-02T14:59:31.891Z,8.91
2023-02-02T15:02:41.603Z,8.85
2023-02-02T15:06:03.731Z,8.89
2023-02-02T15:09:29.175Z,8.82
2023-02-02T15:12:45.668Z,8.81
2023-02-02T15:16:07.484Z,8.80
2023-02-02T15:19:25.838Z,8.93
2023-02-02T15:22:42.345Z,8.89
2023-02-02T15:25:58.634Z,8.83
2023-02-02T15:29:17.194Z,8.78
2023-02-02T15:32:28.344Z,8.75
2023-02-02T15:35:38.369Z,8.76
2023-02-02T15:38:50.742Z,8.76
2023-02-02T15:42:17.053Z,8.78
2023-02-02T15:45:33.324Z,8.61
2023-02-02T15:48:43.881Z,8.63
2023-02-02T15:51:55.844Z,8.66
2023-02-02T15:55:21.040Z,8.64
2023-02-02T15:58:34.312Z,8.61
2023-02-02T16:01:48.376Z,8.66
2023-02-02T16:04:58.178Z,8.63
2023-02-02T16:08:13.822Z,8.67
2023-02-02T16:11:24.874Z,8.58
2023-02-02T16:14:40.370Z,8.53
2023-02-02T16:18:00.171Z,8.46
2023-02-02T16:21:17.878Z,8.41
2023-02-02T16:24:31.533Z,8.40
2023-02-02T16:27:48.593Z,8.36
2023-02-02T16:31:02.566Z,8.31
2023-02-02T16:34:16.976Z,8.34
2023-02-02T16:37:32.627Z,8.23
2023-02-02T16:40:43.022Z,8.20
2023-02-02T16:43:53.293Z,8.27
2023-02-02T16:47:06.858Z,8.19
2023-02-02T16:50:29.934Z,8.13
2023-02-02T16:53:39.874Z,8.10
2023-02-02T16:56:52.942Z,8.02
2023-02-02T17:00:06.908Z,7.95
2023-02-02T17:03:19.056Z,7.89
2023-02-02T17:06:41.637Z,7.84
2023-02-02T17:10:15.028Z,7.65
2023-02-02T17:13:40.118Z,7.62
2023-02-02T17:16:49.847Z,7.59
2023-02-02T17:20:03.133Z,7.59
2023-02-02T17:23:19.038Z,7.42
2023-02-02T17:26:29.001Z,7.43
2023-02-02T17:29:38.763Z,7.50
2023-02-02T17:32:48.759Z,7.42
2023-02-02T17:36:00.246Z,7.40
2023-02-02T17:39:11.693Z,7.38
2023-02-02T17:42:25.500Z,7.35
2023-02-02T17:45:38.444Z,7.25
2023-02-02T17:48:48.055Z,7.18
2023-02-02T17:51:58.956Z,7.27
2023-02-02T17:55:14.865Z,7.26
2023-02-02T17:58:24.547Z,7.20
2023-02-02T18:01:37.638Z,7.26
2023-02-02T18:04:48.753Z,7.25
2023-02-02T18:07:59.585Z,7.19
2023-02-02T18:11:13.511Z,7.27
2023-02-02T18:14:23.117Z,7.15
2023-02-02T18:17:34.152Z,7.12
2023-02-02T18:20:44.267Z,7.14
2023-02-02T18:23:55.122Z,7.15
2023-02-02T18:27:04.951Z,7.16
2023-02-02T18:30:15.362Z,7.06
2023-02-02T18:33:28.196Z,7.04
2023-02-02T18:36:40.250Z,7.01
2023-02-02T18:39:51.839Z,7.00
2023-02-02T18:43:01.461Z,6.94
2023-02-02T18:46:13.770Z,6.89
2023-02-02T18:49:24.088Z,6.89
2023-02-02T18:52:33.859Z,6.94
2023-02-02T18:55:44.867Z,6.88
2023-02-02T18:58:54.761Z,6.88
2023-02-02T19:02:04.390Z,6.91
2023-02-02T19:05:25.828Z,6.99
2023-02-02T19:08:35.863Z,7.00
2023-02-02T19:11:49.176Z,7.03
2023-02-02T19:14:58.725Z,7.03
2023-02-02T19:18:14.612Z,7.08
2023-02-02T19:21:24.352Z,7.13
2023-02-02T19:24:38.391Z,7.09
2023-02-02T19:27:49.262Z,7.06
2023-02-02T19:31:00.964Z,6.97
2023-02-02T19:34:13.585Z,6.94
2023-02-02T19:37:25.624Z,6.94
2023-02-02T19:40:35.381Z,7.06
2023-02-02T19:43:47.739Z,7.02
2023-02-02T19:46:57.991Z,7.02
2023-02-02T19:50:16.287Z,7.10
2023-02-02T19:53:28.736Z,7.09
2023-02-02T19:56:40.228Z,6.98
2023-02-02T19:59:53.329Z,6.91
2023-02-02T20:03:07.595Z,6.92
2023-02-02T20:06:23.304Z,6.98
2023-02-02T20:09:35.617Z,6.94
2023-02-02T20:12:45.670Z,6.87
2023-02-02T20:16:03.593Z,6.94
2023-02-02T20:19:17.688Z,6.96
2023-02-02T20:22:30.264Z,6.96
2023-02-02T20:25:39.855Z,6.95
2023-02-02T20:28:51.067Z,6.94
2023-02-02T20:32:06.091Z,6.95
2023-02-02T20:35:24.831Z,6.86
2023-02-02T20:38:39.083Z,6.88
2023-02-02T20:41:48.946Z,6.83
